createdAt,value
2023-03-02T00:01:57.642Z,80.82
2023-03-02T00:04:28.626Z,81.03
2023-03-02T00:07:01.082Z,80.46
2023-03-02T00:09:31.795Z,81.01
2023-03-02T00:12:00.177Z,80.89
2023-03-02T00:14:29.529Z,80.81
2023-03-02T00:16:57.893Z,81.34
2023-03-02T00:19:27.736Z,81.43
2023-03-02T00:21:56.684Z,80.94
2023-03-02T00:24:24.968Z,80.62
2023-03-02T00:26:54.668Z,81.14
2023-03-02T00:29:23.657Z,81.01
2023-03-02T00:31:51.874Z,81.21
2023-03-02T00:34:20.480Z,81.69
2023-03-02T00:36:49.670Z,81.38
2023-03-02T00:39:20.730Z,81.59
2023-03-02T00:41:49.922Z,81.81
2023-03-02T00:44:19.555Z,81.81
2023-03-02T00:46:47.727Z,81.89
2023-03-02T00:49:16.438Z,81.58
2023-03-02T00:51:44.610Z,81.60
2023-03-02T00:54:12.649Z,82.25
2023-03-02T00:56:41.401Z,82.25
2023-03-02T00:59:26.764Z,82.41
2023-03-02T01:01:59.440Z,81.71
2023-03-02T01:04:29.925Z,82.25
2023-03-02T01:06:58.826Z,82.06
2023-03-02T01:09:27.689Z,81.87
2023-03-02T01:11:56.149Z,81.87
2023-03-02T01:14:25.175Z,82.04
2023-03-02T01:16:54.377Z,81.89
2023-03-02T01:19:24.146Z,83.17
2023-03-02T01:21:52.649Z,82.46
2023-03-02T01:24:23.348Z,82.74
2023-03-02T01:26:51.609Z,82.04
2023-03-02T01:29:20.277Z,82.21
2023-03-02T01:31:49.332Z,82.34
2023-03-02T01:34:17.805Z,82.36
2023-03-02T01:36:47.431Z,81.93
2023-03-02T01:39:16.878Z,82.51
2023-03-02T01:41:45.855Z,82.94
2023-03-02T01:44:36.912Z,82.58
2023-03-02T01:47:07.143Z,82.75
2023-03-02T01:49:39.268Z,83.10
2023-03-02T01:52:10.630Z,83.14
2023-03-02T01:54:40.084Z,83.26
2023-03-02T01:57:09.321Z,83.29
2023-03-02T01:59:39.684Z,83.85
2023-03-02T02:02:13.552Z,83.51
2023-03-02T02:04:46.413Z,83.75
2023-03-02T02:07:17.334Z,83.53
2023-03-02T02:09:48.466Z,83.86
2023-03-02T02:12:18.921Z,83.77
2023-03-02T02:14:48.221Z,84.03
2023-03-02T02:17:17.662Z,84.17
2023-03-02T02:19:57.124Z,84.43
2023-03-02T02:22:41.518Z,84.12
2023-03-02T02:25:19.800Z,84.92
2023-03-02T02:27:49.790Z,84.06
2023-03-02T02:30:20.004Z,83.90
2023-03-02T02:32:51.158Z,84.35
2023-03-02T02:35:24.850Z,84.24
2023-03-02T02:37:56.635Z,84.32
2023-03-02T02:40:43.248Z,84.05
2023-03-02T02:43:14.385Z,84.66
2023-03-02T02:45:44.015Z,84.27
2023-03-02T02:48:16.685Z,83.36
2023-03-02T02:50:46.022Z,83.82
2023-03-02T02:53:19.179Z,83.69
2023-03-02T02:55:50.213Z,83.17
2023-03-02T02:58:29.754Z,83.45
2023-03-02T03:00:58.631Z,83.79
2023-03-02T03:03:31.432Z,82.94
2023-03-02T03:06:02.617Z,82.64
2023-03-02T03:09:00.083Z,83.44
2023-03-02T03:11:31.626Z,82.81
2023-03-02T03:14:08.789Z,82.64
2023-03-02T03:16:39.756Z,83.53
2023-03-02T03:19:15.574Z,83.26
2023-03-02T03:21:44.330Z,82.56
2023-03-02T03:24:12.630Z,82.69
2023-03-02T03:26:41.103Z,83.25
2023-03-02T03:29:11.866Z,83.51
2023-03-02T03:31:40.263Z,83.38
2023-03-02T03:34:09.040Z,83.57
2023-03-02T03:36:39.037Z,83.93
2023-03-02T03:39:07.814Z,83.70
2023-03-02T03:41:36.596Z,83.16
2023-03-02T03:44:05.508Z,83.07
2023-03-02T03:46:36.456Z,84.14
2023-03-02T03:49:06.388Z,84.07
2023-03-02T03:51:35.574Z,84.27
2023-03-02T03:54:05.066Z,83.60
2023-03-02T03:56:35.609Z,84.03
2023-03-02T03:59:08.033Z,83.83
2023-03-02T04:01:40.713Z,84.35
2023-03-02T04:04:16.138Z,84.02
2023-03-02T04:06:44.973Z,84.67
2023-03-02T04:09:15.652Z,84.31
2023-03-02T04:11:45.957Z,84.76
2023-03-02T04:14:15.357Z,84.41
2023-03-02T04:16:46.608Z,84.28
2023-03-02T04:19:17.601Z,84.03
2023-03-02T04:21:49.162Z,84.44
2023-03-02T04:24:18.804Z,84.07
2023-03-02T04:26:49.622Z,84.60
2023-03-02T04:29:18.805Z,84.70
2023-03-02T04:31:50.129Z,84.67
2023-03-02T04:34:18.747Z,84.14
2023-03-02T04:36:47.496Z,84.45
2023-03-02T04:39:18.535Z,84.70
2023-03-02T04:41:48.190Z,84.18
2023-03-02T04:44:19.237Z,84.39
2023-03-02T04:46:49.846Z,84.20
2023-03-02T04:49:19.944Z,83.76
2023-03-02T04:51:49.929Z,84.52
2023-03-02T04:54:22.043Z,84.49
2023-03-02T04:56:51.820Z,84.40
2023-03-02T04:59:26.055Z,84.32
2023-03-02T05:01:57.189Z,84.22
2023-03-02T05:04:25.988Z,84.05
2023-03-02T05:06:54.186Z,84.94
2023-03-02T05:09:27.376Z,84.34
2023-03-02T05:11:56.069Z,84.72
2023-03-02T05:14:24.511Z,84.14
2023-03-02T05:16:53.144Z,84.35
2023-03-02T05:19:23.004Z,84.47
2023-03-02T05:21:51.431Z,84.70
2023-03-02T05:24:20.532Z,84.16
2023-03-02T05:26:48.862Z,84.38
2023-03-02T05:29:17.074Z,84.44
2023-03-02T05:31:46.995Z,84.34
2023-03-02T05:34:17.427Z,84.86
2023-03-02T05:36:47.592Z,84.49
2023-03-02T05:39:15.850Z,84.37
2023-03-02T05:41:44.032Z,83.88
2023-03-02T05:44:13.099Z,84.40
2023-03-02T05:46:41.661Z,84.32
2023-03-02T05:49:16.290Z,83.97
2023-03-02T05:51:44.639Z,84.33
2023-03-02T05:54:13.978Z,84.58
2023-03-02T05:56:42.521Z,84.24
2023-03-02T05:59:10.431Z,84.46
2023-03-02T06:01:39.121Z,84.29
2023-03-02T06:04:08.200Z,84.31
2023-03-02T06:06:36.733Z,84.62
2023-03-02T06:09:05.202Z,84.10
2023-03-02T06:11:35.524Z,84.75
2023-03-02T06:14:03.564Z,83.98
2023-03-02T06:16:33.969Z,83.86
2023-03-02T06:19:04.055Z,83.27
2023-03-02T06:21:32.722Z,84.33
2023-03-02T06:24:00.928Z,84.20
2023-03-02T06:26:29.794Z,83.79
2023-03-02T06:29:00.119Z,83.43
2023-03-02T06:31:29.020Z,83.55
2023-03-02T06:34:00.659Z,83.36
2023-03-02T06:36:29.820Z,83.63
2023-03-02T06:38:58.476Z,83.86
2023-03-02T06:41:27.727Z,81.59
2023-03-02T06:43:57.094Z,76.29
2023-03-02T06:46:27.055Z,74.29
2023-03-02T06:48:57.942Z,69.13
2023-03-02T06:51:27.194Z,68.85
2023-03-02T06:53:59.049Z,64.58
2023-03-02T06:56:27.639Z,64.89
2023-03-02T06:58:56.905Z,58.90
2023-03-02T07:01:26.970Z,58.47
2023-03-02T07:03:55.321Z,54.67
2023-03-02T07:06:23.603Z,52.51
2023-03-02T07:08:52.215Z,50.59
2023-03-02T07:11:22.824Z,52.34
2023-03-02T07:13:52.015Z,53.15
2023-03-02T07:16:20.217Z,58.75
2023-03-02T07:18:50.288Z,50.53
2023-03-02T07:21:18.673Z,45.39
2023-03-02T07:23:47.888Z,51.11
2023-03-02T07:26:16.361Z,48.93
2023-03-02T07:28:44.549Z,47.66
2023-03-02T07:31:13.320Z,46.00
2023-03-02T07:33:42.927Z,46.41
2023-03-02T07:36:12.483Z,45.22
2023-03-02T07:38:40.530Z,38.73
2023-03-02T07:41:10.413Z,42.47
2023-03-02T07:43:39.310Z,39.02
2023-03-02T07:46:07.906Z,39.58
2023-03-02T07:48:36.669Z,38.43
2023-03-02T07:51:06.706Z,34.39
2023-03-02T07:53:37.192Z,35.97
2023-03-02T07:56:10.605Z,38.95
2023-03-02T07:58:39.699Z,42.59
2023-03-02T08:01:08.949Z,38.15
2023-03-02T08:03:37.789Z,35.13
2023-03-02T08:06:07.837Z,32.24
2023-03-02T08:08:38.468Z,34.70
2023-03-02T08:11:09.274Z,32.06
2023-03-02T08:13:37.782Z,33.27
2023-03-02T08:16:08.254Z,32.26
2023-03-02T08:18:38.327Z,36.68
2023-03-02T08:21:13.175Z,31.64
2023-03-02T08:23:43.894Z,30.78
2023-03-02T08:26:15.853Z,34.21
2023-03-02T08:28:46.232Z,33.65
2023-03-02T08:31:15.503Z,29.75
2023-03-02T08:33:44.772Z,31.51
2023-03-02T08:36:16.210Z,30.94
2023-03-02T08:38:46.585Z,31.09
2023-03-02T08:41:17.333Z,29.88
2023-03-02T08:43:45.691Z,29.80
2023-03-02T08:46:15.180Z,30.95
2023-03-02T08:48:44.258Z,31.54
2023-03-02T08:51:15.013Z,32.27
2023-03-02T08:53:47.496Z,30.57
2023-03-02T08:56:20.942Z,30.14
2023-03-02T08:58:53.321Z,29.51
2023-03-02T09:01:23.498Z,29.07
2023-03-02T09:03:52.730Z,30.23
2023-03-02T09:06:21.114Z,27.29
2023-03-02T09:08:52.065Z,27.35
2023-03-02T09:11:21.035Z,32.12
2023-03-02T09:13:49.438Z,33.54
2023-03-02T09:16:20.288Z,29.93
2023-03-02T09:18:49.819Z,29.63
2023-03-02T09:21:18.852Z,30.75
2023-03-02T09:23:47.954Z,32.08
2023-03-02T09:26:18.690Z,29.19
2023-03-02T09:28:46.940Z,28.71
2023-03-02T09:31:15.319Z,28.55
2023-03-02T09:33:44.194Z,29.81
2023-03-02T09:36:16.978Z,29.24
2023-03-02T09:38:45.961Z,34.12
2023-03-02T09:41:50.637Z,32.91
2023-03-02T09:44:36.511Z,31.24
2023-03-02T09:47:07.034Z,31.01
2023-03-02T09:49:52.332Z,34.26
2023-03-02T09:52:32.286Z,37.84
2023-03-02T09:55:04.548Z,40.43
2023-03-02T09:57:39.955Z,39.21
2023-03-02T10:00:19.430Z,39.11
2023-03-02T10:02:50.697Z,41.32
2023-03-02T10:05:22.133Z,40.70
2023-03-02T10:07:50.384Z,41.92
2023-03-02T10:10:28.044Z,43.18
2023-03-02T10:13:12.769Z,42.39
2023-03-02T10:15:50.781Z,43.02
2023-03-02T10:18:24.487Z,42.25
2023-03-02T10:20:58.412Z,43.71
2023-03-02T10:23:41.699Z,43.80
2023-03-02T10:26:24.251Z,44.76
2023-03-02T10:29:01.614Z,44.91
2023-03-02T10:31:34.840Z,44.12
2023-03-02T10:34:02.973Z,45.43
2023-03-02T10:36:40.575Z,44.03
2023-03-02T10:39:15.392Z,44.50
2023-03-02T10:41:50.036Z,44.66
2023-03-02T10:44:23.872Z,44.61
2023-03-02T10:46:54.582Z,44.56
2023-03-02T10:49:28.088Z,44.30
2023-03-02T10:51:59.536Z,43.21
2023-03-02T10:54:28.920Z,44.42
2023-03-02T10:57:01.174Z,44.70
2023-03-02T10:59:47.816Z,44.48
2023-03-02T11:02:23.094Z,42.15
2023-03-02T11:04:57.706Z,42.60
2023-03-02T11:07:29.316Z,44.08
2023-03-02T11:10:05.723Z,42.40
2023-03-02T11:12:37.883Z,42.75
2023-03-02T11:15:23.847Z,42.72
2023-03-02T11:18:01.631Z,43.33
2023-03-02T11:20:33.913Z,43.12
2023-03-02T11:23:23.788Z,44.21
2023-03-02T11:25:57.135Z,43.71
2023-03-02T11:28:42.775Z,44.67
2023-03-02T11:31:21.495Z,44.69
2023-03-02T11:34:11.945Z,45.26
2023-03-02T11:36:52.347Z,44.90
2023-03-02T11:39:27.485Z,44.44
2023-03-02T11:41:55.903Z,46.08
2023-03-02T11:44:27.963Z,45.59
2023-03-02T11:47:02.098Z,44.62
2023-03-02T11:49:41.194Z,44.67
2023-03-02T11:52:20.046Z,45.66
2023-03-02T11:54:54.831Z,45.17
2023-03-02T11:57:29.134Z,45.00
2023-03-02T11:59:59.826Z,45.63
2023-03-02T12:02:30.010Z,45.45
2023-03-02T12:05:06.519Z,44.60
2023-03-02T12:07:34.753Z,45.04
2023-03-02T12:10:08.042Z,45.34
2023-03-02T12:12:42.043Z,45.11
2023-03-02T12:15:30.286Z,45.31
2023-03-02T12:17:59.745Z,44.49
2023-03-02T12:20:31.003Z,44.65
2023-03-02T12:23:11.515Z,43.29
2023-03-02T12:25:50.276Z,43.47
2023-03-02T12:28:31.820Z,43.58
2023-03-02T12:31:10.622Z,44.26
2023-03-02T12:33:49.228Z,43.64
2023-03-02T12:36:25.071Z,43.21
2023-03-02T12:39:15.051Z,43.83
2023-03-02T12:42:06.117Z,45.20
2023-03-02T12:44:49.798Z,43.79
2023-03-02T12:47:26.544Z,44.35
2023-03-02T12:49:58.853Z,44.31
2023-03-02T12:52:33.687Z,44.19
2023-03-02T12:55:05.392Z,43.94
2023-03-02T12:57:34.716Z,43.48
2023-03-02T13:00:04.768Z,43.88
2023-03-02T13:02:36.312Z,44.31
2023-03-02T13:05:09.005Z,43.74
2023-03-02T13:07:39.793Z,43.39
2023-03-02T13:10:22.641Z,43.41
2023-03-02T13:12:51.268Z,43.65
2023-03-02T13:15:20.182Z,43.03
2023-03-02T13:17:56.808Z,44.08
2023-03-02T13:20:29.960Z,43.98
2023-03-02T13:22:59.247Z,44.74
2023-03-02T13:25:30.018Z,43.49
2023-03-02T13:28:01.272Z,43.60
2023-03-02T13:30:32.420Z,44.40
2023-03-02T13:33:04.362Z,44.23
2023-03-02T13:35:38.060Z,43.68
2023-03-02T13:38:15.800Z,43.07
2023-03-02T13:40:47.682Z,43.70
2023-03-02T13:43:35.505Z,43.97
2023-03-02T13:46:06.221Z,44.15
2023-03-02T13:48:34.545Z,43.43
2023-03-02T13:51:15.156Z,43.55
2023-03-02T13:53:52.332Z,43.74
2023-03-02T13:56:22.375Z,43.76
2023-03-02T13:58:50.947Z,43.69
2023-03-02T14:01:25.087Z,43.86
2023-03-02T14:03:54.892Z,43.99
2023-03-02T14:06:25.960Z,44.11
2023-03-02T14:08:54.997Z,44.11
2023-03-02T14:11:25.507Z,44.31
2023-03-02T14:13:55.894Z,43.80
2023-03-02T14:16:24.398Z,43.56
2023-03-02T14:18:53.940Z,43.43
2023-03-02T14:21:23.924Z,43.57
2023-03-02T14:23:54.688Z,44.39
2023-03-02T14:26:32.007Z,43.20
2023-03-02T14:29:06.292Z,43.38
2023-03-02T14:31:35.770Z,44.05
2023-03-02T14:34:05.235Z,43.79
2023-03-02T14:36:35.238Z,43.39
2023-03-02T14:39:12.485Z,43.90
2023-03-02T14:41:53.021Z,43.05
2023-03-02T14:44:23.267Z,43.94
2023-03-02T14:46:51.746Z,43.85
2023-03-02T14:49:20.446Z,43.59
2023-03-02T14:51:58.257Z,44.10
2023-03-02T14:54:31.979Z,43.62
2023-03-02T14:57:00.972Z,44.07
2023-03-02T14:59:29.366Z,43.69
2023-03-02T15:02:02.456Z,43.69
2023-03-02T15:04:36.634Z,44.31
2023-03-02T15:07:05.841Z,44.83
2023-03-02T15:09:35.745Z,44.40
2023-03-02T15:12:04.486Z,44.44
2023-03-02T15:14:35.742Z,44.63
2023-03-02T15:17:04.678Z,44.25
2023-03-02T15:19:33.691Z,44.81
2023-03-02T15:22:02.492Z,46.70
2023-03-02T15:24:33.165Z,47.75
2023-03-02T15:27:03.618Z,47.85
2023-03-02T15:29:32.237Z,48.49
2023-03-02T15:32:01.112Z,48.80
2023-03-02T15:34:30.078Z,49.21
2023-03-02T15:36:58.260Z,49.46
2023-03-02T15:39:26.810Z,49.64
2023-03-02T15:41:55.584Z,50.14
2023-03-02T15:44:26.399Z,50.47
2023-03-02T15:46:56.223Z,51.37
2023-03-02T15:49:27.312Z,51.71
2023-03-02T15:51:58.042Z,52.06
2023-03-02T15:54:28.598Z,52.88
2023-03-02T15:56:57.412Z,52.45
2023-03-02T15:59:28.834Z,53.23
2023-03-02T16:02:00.029Z,53.56
2023-03-02T16:04:29.064Z,54.21
2023-03-02T16:06:57.435Z,54.32
2023-03-02T16:09:29.425Z,54.50
2023-03-02T16:11:57.656Z,54.43
2023-03-02T16:14:27.605Z,55.16
2023-03-02T16:16:56.628Z,56.08
2023-03-02T16:19:25.176Z,55.76
2023-03-02T16:21:53.556Z,56.40
2023-03-02T16:24:22.249Z,56.78
2023-03-02T16:26:54.966Z,56.91
2023-03-02T16:29:24.512Z,56.81
2023-03-02T16:31:54.309Z,56.82
2023-03-02T16:34:23.035Z,57.01
2023-03-02T16:36:51.717Z,57.15
2023-03-02T16:39:20.859Z,57.98
2023-03-02T16:41:49.236Z,58.21
2023-03-02T16:44:17.860Z,58.61
2023-03-02T16:46:46.739Z,58.24
2023-03-02T16:49:16.580Z,58.16
2023-03-02T16:51:45.457Z,58.70
2023-03-02T16:54:19.613Z,58.67
2023-03-02T16:56:48.419Z,59.01
2023-03-02T16:59:17.069Z,59.63
2023-03-02T17:01:46.300Z,59.23
2023-03-02T17:04:18.515Z,59.24
2023-03-02T17:07:03.653Z,60.25
2023-03-02T17:09:33.129Z,60.29
2023-03-02T17:12:01.728Z,59.48
2023-03-02T17:14:30.320Z,59.50
2023-03-02T17:16:58.384Z,59.93
2023-03-02T17:19:30.026Z,60.11
2023-03-02T17:21:59.255Z,60.26
2023-03-02T17:24:28.146Z,60.55
2023-03-02T17:26:58.621Z,60.35
2023-03-02T17:29:26.627Z,60.10
2023-03-02T17:31:55.063Z,59.96
2023-03-02T17:34:24.154Z,60.55
2023-03-02T17:36:54.017Z,60.62
2023-03-02T17:39:22.495Z,61.06
2023-03-02T17:41:51.290Z,60.78
2023-03-02T17:44:19.602Z,61.34
2023-03-02T17:46:49.368Z,61.19
2023-03-02T17:49:18.264Z,60.97
2023-03-02T17:51:46.440Z,61.23
2023-03-02T17:54:16.410Z,62.09
2023-03-02T17:56:44.417Z,61.43
2023-03-02T17:59:13.258Z,61.92
2023-03-02T18:01:44.098Z,62.04
2023-03-02T18:04:12.802Z,61.53
2023-03-02T18:06:42.234Z,61.54
2023-03-02T18:09:11.995Z,61.92
2023-03-02T18:11:42.636Z,61.77
2023-03-02T18:14:14.776Z,62.01
2023-03-02T18:16:42.861Z,62.10
2023-03-02T18:19:11.437Z,61.68
2023-03-02T18:21:42.247Z,62.10
2023-03-02T18:24:11.062Z,62.17
2023-03-02T18:26:39.797Z,61.90
2023-03-02T18:29:09.739Z,62.09
2023-03-02T18:31:38.157Z,62.87
2023-03-02T18:34:06.410Z,62.92
2023-03-02T18:36:35.607Z,63.06
2023-03-02T18:39:04.845Z,62.69
2023-03-02T18:41:33.480Z,62.60
2023-03-02T18:44:04.071Z,62.91
2023-03-02T18:46:34.477Z,63.49
2023-03-02T18:49:05.042Z,63.95
2023-03-02T18:51:33.352Z,64.04
2023-03-02T18:54:01.406Z,64.18
2023-03-02T18:56:30.497Z,64.14
2023-03-02T18:58:59.003Z,64.65
2023-03-02T19:01:33.809Z,65.01
2023-03-02T19:04:03.741Z,65.03
2023-03-02T19:06:31.944Z,65.37
2023-03-02T19:09:00.829Z,66.17
2023-03-02T19:11:29.121Z,66.26
2023-03-02T19:13:57.660Z,66.08
2023-03-02T19:16:26.199Z,66.79
2023-03-02T19:18:55.766Z,66.71
2023-03-02T19:21:24.124Z,66.99
2023-03-02T19:23:53.228Z,67.09
2023-03-02T19:26:21.703Z,66.86
2023-03-02T19:28:50.100Z,67.52
2023-03-02T19:31:18.683Z,67.17
2023-03-02T19:33:47.043Z,67.08
2023-03-02T19:36:16.872Z,67.60
2023-03-02T19:38:45.345Z,68.34
2023-03-02T19:41:16.388Z,68.11
2023-03-02T19:43:46.410Z,68.59
2023-03-02T19:46:15.331Z,68.32
2023-03-02T19:48:43.720Z,68.44
2023-03-02T19:51:12.684Z,68.09
2023-03-02T19:53:43.695Z,67.90
2023-03-02T19:56:15.419Z,68.34
2023-03-02T19:58:50.058Z,68.50
2023-03-02T20:01:22.211Z,68.22
2023-03-02T20:03:51.851Z,68.17
2023-03-02T20:06:20.269Z,68.19
2023-03-02T20:08:54.230Z,68.70
2023-03-02T20:11:22.542Z,68.82
2023-03-02T20:13:56.126Z,68.43
2023-03-02T20:16:26.727Z,69.04
2023-03-02T20:18:56.028Z,69.08
2023-03-02T20:21:27.097Z,68.81
2023-03-02T20:23:57.417Z,68.07
2023-03-02T20:26:26.309Z,68.24
2023-03-02T20:28:56.969Z,67.39
2023-03-02T20:31:26.574Z,66.50
2023-03-02T20:33:57.058Z,65.54
2023-03-02T20:36:30.446Z,65.03
2023-03-02T20:39:04.218Z,65.11
2023-03-02T20:41:32.948Z,64.84
2023-03-02T20:44:01.092Z,65.87
2023-03-02T20:46:31.857Z,65.32
2023-03-02T20:49:00.701Z,66.00
2023-03-02T20:51:30.103Z,66.13
2023-03-02T20:54:00.268Z,65.38
2023-03-02T20:56:29.066Z,65.91
2023-03-02T20:58:57.341Z,66.17
2023-03-02T21:01:25.600Z,66.49
2023-03-02T21:03:54.580Z,66.46
2023-03-02T21:06:23.439Z,66.96
2023-03-02T21:08:52.773Z,67.33
2023-03-02T21:11:23.948Z,67.65
2023-03-02T21:13:55.858Z,67.69
2023-03-02T21:16:27.732Z,67.75
2023-03-02T21:18:56.248Z,67.89
2023-03-02T21:21:40.364Z,67.47
2023-03-02T21:24:10.460Z,67.22
2023-03-02T21:26:41.576Z,67.76
2023-03-02T21:29:12.349Z,68.21
2023-03-02T21:31:42.190Z,69.17
2023-03-02T21:34:10.984Z,68.34
2023-03-02T21:36:39.629Z,68.63
2023-03-02T21:39:09.752Z,69.05
2023-03-02T21:41:41.046Z,69.06
2023-03-02T21:44:09.908Z,69.35
2023-03-02T21:46:39.929Z,69.65
2023-03-02T21:49:08.910Z,69.62
2023-03-02T21:51:37.296Z,69.59
2023-03-02T21:54:05.794Z,69.81
2023-03-02T21:56:34.576Z,69.71
2023-03-02T21:59:05.085Z,70.20
2023-03-02T22:01:33.923Z,70.14
2023-03-02T22:04:02.650Z,70.42
2023-03-02T22:06:32.745Z,70.38
2023-03-02T22:09:01.675Z,70.60
2023-03-02T22:11:32.396Z,71.66
2023-03-02T22:14:04.582Z,71.09
2023-03-02T22:16:37.210Z,71.62
2023-03-02T22:19:20.407Z,72.08
2023-03-02T22:21:50.050Z,72.11
2023-03-02T22:24:24.111Z,72.38
2023-03-02T22:26:59.866Z,72.76
2023-03-02T22:29:33.770Z,72.59
2023-03-02T22:32:14.960Z,73.38
2023-03-02T22:34:44.963Z,73.24
2023-03-02T22:37:15.609Z,73.95
2023-03-02T22:39:44.607Z,73.50
2023-03-02T22:42:16.449Z,73.33
2023-03-02T22:44:48.978Z,73.31
2023-03-02T22:47:20.281Z,73.47
2023-03-02T22:49:55.322Z,73.22
2023-03-02T22:52:26.303Z,72.92
2023-03-02T22:54:55.200Z,71.86
2023-03-02T22:57:31.677Z,72.35
2023-03-02T23:00:41.152Z,72.35
2023-03-02T23:03:18.966Z,71.63
2023-03-02T23:05:49.284Z,71.76
2023-03-02T23:08:23.202Z,71.88
2023-03-02T23:10:52.951Z,71.11
2023-03-02T23:13:27.256Z,70.61
2023-03-02T23:15:56.281Z,70.98
2023-03-02T23:18:29.004Z,71.99
2023-03-02T23:20:57.709Z,71.69
2023-03-02T23:23:28.019Z,73.17
2023-03-02T23:25:57.066Z,72.63
2023-03-02T23:28:25.064Z,72.45
2023-03-02T23:30:53.700Z,72.40
2023-03-02T23:33:22.440Z,72.34
2023-03-02T23:35:52.362Z,71.97
2023-03-02T23:38:20.475Z,72.07
2023-03-02T23:40:49.437Z,72.72
2023-03-02T23:43:19.959Z,73.62
2023-03-02T23:45:48.806Z,73.33
2023-03-02T23:48:16.813Z,74.52
2023-03-02T23:50:45.748Z,74.84
2023-03-02T23:53:15.962Z,74.35
2023-03-02T23:55:48.735Z,75.03
2023-03-02T23:58:20.636Z,75.01
